ilmateenistus.ee keskkonnaagentuur.ee
EETN Tallinna lennuväli
FTEO31 EETN 270500
TAF EETN 270530Z 2706/2806 VRB02KT 0400 FG VV002 BECMG 2707/2709 9999
    BKN005 BECMG 2709/2711 BKN020 BECMG 2721/2723 17010KT=

METAR EETN 270650Z 22004KT 0800 R08/1000N FG VV001 12/11 Q1027 TEMPO 1500 BR=
Tallinna lennuväli
EEKA Kärdla lennuväli
FCEO32 EETN 270300
TAF EEKA 270300Z 2704/2710 VRB02KT 4000 BR SCT003 TEMPO 2704/2707
    0500 BCFG BKN002 BECMG 2707/2709 9999 SCT020=

METAR EEKA 270650Z 21003KT 9999 FEW017 13/12 Q1027=
Kärdla lennuväli
EEKE Kuressaare lennuväli
FCEO32 EETN 270500
TAF EEKE 270500Z 2706/2712 25007KT 9999 SCT030 TEMPO 2706/2708 1500
    BCFG BR BKN003=

METAR EEKE 270650Z 00000KT 9999 FEW040 11/11 Q1028=
Kuressaare lennuväli
EEPU Pärnu lennuväli
METAR EEPU 270650Z VRB01KT 0300 FG VV/// 11/11 Q1028=
Pärnu lennuväli
EETU Tartu lennuväli
FCEO32 EETN 270600
TAF EETU 270600Z 2707/2713 25006KT 0600 FG VV002 TEMPO 2707/2709 3000
    BR BECMG 2709/2711 9999 BKN007=

METAR EETU 270650Z 27005KT 240V320 3000 BR OVC002 11/10 Q1027=
Tartu lennuväli